sensor_id;sensor_type;location;lat;lon;timestamp;P1;durP1;ratioP1;P2;durP2;ratioP2
64682;SDS011;51107;47.652;19.016;2023-10-08T00:01:38;1.80;;;1.05;;
64682;SDS011;51107;47.652;19.016;2023-10-08T00:04:10;3.55;;;1.35;;
64682;SDS011;51107;47.652;19.016;2023-10-08T00:06:39;2.17;;;0.95;;
64682;SDS011;51107;47.652;19.016;2023-10-08T00:09:07;1.85;;;1.10;;
64682;SDS011;51107;47.652;19.016;2023-10-08T00:11:37;2.10;;;1.05;;
64682;SDS011;51107;47.652;19.016;2023-10-08T00:14:07;1.75;;;1.00;;
64682;SDS011;51107;47.652;19.016;2023-10-08T00:16:45;2.20;;;0.65;;
64682;SDS011;51107;47.652;19.016;2023-10-08T00:19:17;1.90;;;0.93;;
64682;SDS011;51107;47.652;19.016;2023-10-08T00:21:46;1.80;;;0.93;;
64682;SDS011;51107;47.652;19.016;2023-10-08T00:24:16;2.15;;;1.00;;
64682;SDS011;51107;47.652;19.016;2023-10-08T00:26:44;4.40;;;0.82;;
64682;SDS011;51107;47.652;19.016;2023-10-08T00:29:14;1.92;;;0.70;;
64682;SDS011;51107;47.652;19.016;2023-10-08T00:32:00;2.12;;;0.95;;
64682;SDS011;51107;47.652;19.016;2023-10-08T00:34:40;3.08;;;1.15;;
64682;SDS011;51107;47.652;19.016;2023-10-08T00:37:11;2.03;;;1.00;;
64682;SDS011;51107;47.652;19.016;2023-10-08T00:39:42;1.10;;;0.70;;
64682;SDS011;51107;47.652;19.016;2023-10-08T00:42:11;2.97;;;1.23;;
64682;SDS011;51107;47.652;19.016;2023-10-08T00:44:40;3.10;;;1.20;;
64682;SDS011;51107;47.652;19.016;2023-10-08T00:47:22;3.30;;;0.90;;
64682;SDS011;51107;47.652;19.016;2023-10-08T00:49:54;2.67;;;0.90;;
64682;SDS011;51107;47.652;19.016;2023-10-08T00:52:37;3.20;;;1.50;;
64682;SDS011;51107;47.652;19.016;2023-10-08T00:55:12;2.55;;;1.20;;
64682;SDS011;51107;47.652;19.016;2023-10-08T00:57:50;3.15;;;0.93;;
64682;SDS011;51107;47.652;19.016;2023-10-08T01:00:25;1.73;;;0.90;;
64682;SDS011;51107;47.652;19.016;2023-10-08T01:03:00;3.55;;;0.93;;
64682;SDS011;51107;47.652;19.016;2023-10-08T01:05:30;6.93;;;1.12;;
64682;SDS011;51107;47.652;19.016;2023-10-08T01:08:11;2.58;;;1.05;;
64682;SDS011;51107;47.652;19.016;2023-10-08T01:10:45;2.85;;;1.12;;
64682;SDS011;51107;47.652;19.016;2023-10-08T01:13:15;4.00;;;1.10;;
64682;SDS011;51107;47.652;19.016;2023-10-08T01:15:48;2.35;;;1.15;;
64682;SDS011;51107;47.652;19.016;2023-10-08T01:18:18;2.53;;;1.08;;
64682;SDS011;51107;47.652;19.016;2023-10-08T01:20:57;2.03;;;1.08;;
64682;SDS011;51107;47.652;19.016;2023-10-08T01:23:32;6.70;;;1.02;;
64682;SDS011;51107;47.652;19.016;2023-10-08T01:26:00;2.12;;;1.20;;
64682;SDS011;51107;47.652;19.016;2023-10-08T01:28:39;1.95;;;0.95;;
64682;SDS011;51107;47.652;19.016;2023-10-08T01:31:08;2.22;;;1.10;;
64682;SDS011;51107;47.652;19.016;2023-10-08T01:33:41;4.03;;;1.33;;
64682;SDS011;51107;47.652;19.016;2023-10-08T01:36:17;7.78;;;1.12;;
64682;SDS011;51107;47.652;19.016;2023-10-08T01:38:46;2.65;;;0.90;;
64682;SDS011;51107;47.652;19.016;2023-10-08T01:41:17;2.85;;;1.25;;
64682;SDS011;51107;47.652;19.016;2023-10-08T01:43:57;1.75;;;0.80;;
64682;SDS011;51107;47.652;19.016;2023-10-08T01:46:26;1.77;;;0.90;;
64682;SDS011;51107;47.652;19.016;2023-10-08T01:48:55;4.72;;;1.40;;
64682;SDS011;51107;47.652;19.016;2023-10-08T01:51:38;3.30;;;0.98;;
64682;SDS011;51107;47.652;19.016;2023-10-08T01:54:07;4.85;;;1.35;;
64682;SDS011;51107;47.652;19.016;2023-10-08T01:56:40;3.00;;;1.33;;
64682;SDS011;51107;47.652;19.016;2023-10-08T01:59:10;3.97;;;1.27;;
64682;SDS011;51107;47.652;19.016;2023-10-08T02:01:43;3.87;;;1.10;;
64682;SDS011;51107;47.652;19.016;2023-10-08T02:04:13;4.90;;;1.10;;
64682;SDS011;51107;47.652;19.016;2023-10-08T02:06:46;1.73;;;0.90;;
64682;SDS011;51107;47.652;19.016;2023-10-08T02:09:14;3.90;;;1.30;;
64682;SDS011;51107;47.652;19.016;2023-10-08T02:11:47;4.50;;;1.10;;
64682;SDS011;51107;47.652;19.016;2023-10-08T02:14:21;2.83;;;1.27;;
64682;SDS011;51107;47.652;19.016;2023-10-08T02:16:50;1.58;;;0.95;;
64682;SDS011;51107;47.652;19.016;2023-10-08T02:19:24;2.15;;;1.15;;
64682;SDS011;51107;47.652;19.016;2023-10-08T02:21:56;1.77;;;0.90;;
64682;SDS011;51107;47.652;19.016;2023-10-08T02:24:26;3.00;;;0.93;;
64682;SDS011;51107;47.652;19.016;2023-10-08T02:26:54;7.37;;;1.15;;
64682;SDS011;51107;47.652;19.016;2023-10-08T02:29:25;1.85;;;1.10;;
64682;SDS011;51107;47.652;19.016;2023-10-08T02:31:55;2.42;;;1.15;;
64682;SDS011;51107;47.652;19.016;2023-10-08T02:34:24;1.58;;;0.90;;
64682;SDS011;51107;47.652;19.016;2023-10-08T02:36:52;5.47;;;1.02;;
64682;SDS011;51107;47.652;19.016;2023-10-08T02:39:22;2.15;;;0.93;;
64682;SDS011;51107;47.652;19.016;2023-10-08T02:41:54;3.45;;;1.30;;
64682;SDS011;51107;47.652;19.016;2023-10-08T02:44:26;1.95;;;0.85;;
64682;SDS011;51107;47.652;19.016;2023-10-08T02:46:56;3.33;;;1.33;;
64682;SDS011;51107;47.652;19.016;2023-10-08T02:49:24;2.83;;;1.20;;
64682;SDS011;51107;47.652;19.016;2023-10-08T02:51:53;10.25;;;1.17;;
64682;SDS011;51107;47.652;19.016;2023-10-08T02:54:22;2.37;;;1.02;;
64682;SDS011;51107;47.652;19.016;2023-10-08T02:56:58;1.37;;;0.95;;
64682;SDS011;51107;47.652;19.016;2023-10-08T02:59:32;2.67;;;1.03;;
64682;SDS011;51107;47.652;19.016;2023-10-08T03:02:09;2.55;;;0.98;;
64682;SDS011;51107;47.652;19.016;2023-10-08T03:04:45;2.87;;;0.95;;
64682;SDS011;51107;47.652;19.016;2023-10-08T03:07:15;5.00;;;1.05;;
64682;SDS011;51107;47.652;19.016;2023-10-08T03:09:51;3.92;;;1.37;;
64682;SDS011;51107;47.652;19.016;2023-10-08T03:12:32;3.80;;;0.82;;
64682;SDS011;51107;47.652;19.016;2023-10-08T03:15:04;3.12;;;0.82;;
64682;SDS011;51107;47.652;19.016;2023-10-08T03:17:56;1.85;;;0.88;;
64682;SDS011;51107;47.652;19.016;2023-10-08T03:20:37;4.30;;;1.10;;
64682;SDS011;51107;47.652;19.016;2023-10-08T03:23:07;1.60;;;1.00;;
64682;SDS011;51107;47.652;19.016;2023-10-08T03:25:52;1.40;;;0.82;;
64682;SDS011;51107;47.652;19.016;2023-10-08T03:28:39;2.15;;;1.00;;
64682;SDS011;51107;47.652;19.016;2023-10-08T03:31:09;4.53;;;1.42;;
64682;SDS011;51107;47.652;19.016;2023-10-08T03:33:46;3.28;;;1.05;;
64682;SDS011;51107;47.652;19.016;2023-10-08T03:36:20;2.12;;;1.00;;
64682;SDS011;51107;47.652;19.016;2023-10-08T03:38:49;8.30;;;1.00;;
64682;SDS011;51107;47.652;19.016;2023-10-08T03:41:23;3.33;;;1.20;;
64682;SDS011;51107;47.652;19.016;2023-10-08T03:43:56;5.03;;;1.45;;
64682;SDS011;51107;47.652;19.016;2023-10-08T03:46:34;2.45;;;0.85;;
64682;SDS011;51107;47.652;19.016;2023-10-08T03:49:11;3.42;;;1.42;;
64682;SDS011;51107;47.652;19.016;2023-10-08T03:51:53;2.03;;;1.20;;
64682;SDS011;51107;47.652;19.016;2023-10-08T03:54:25;3.33;;;1.15;;
64682;SDS011;51107;47.652;19.016;2023-10-08T03:57:03;5.68;;;1.02;;
64682;SDS011;51107;47.652;19.016;2023-10-08T03:59:41;2.40;;;1.00;;
64682;SDS011;51107;47.652;19.016;2023-10-08T04:02:11;4.00;;;1.08;;
64682;SDS011;51107;47.652;19.016;2023-10-08T04:04:50;3.40;;;1.12;;
64682;SDS011;51107;47.652;19.016;2023-10-08T04:07:19;2.90;;;1.10;;
64682;SDS011;51107;47.652;19.016;2023-10-08T04:09:57;3.83;;;1.17;;
64682;SDS011;51107;47.652;19.016;2023-10-08T04:12:38;5.53;;;1.23;;
64682;SDS011;51107;47.652;19.016;2023-10-08T04:15:12;4.57;;;1.45;;
64682;SDS011;51107;47.652;19.016;2023-10-08T04:17:44;4.72;;;1.40;;
64682;SDS011;51107;47.652;19.016;2023-10-08T04:20:19;3.10;;;1.30;;
64682;SDS011;51107;47.652;19.016;2023-10-08T04:23:06;4.45;;;1.40;;
64682;SDS011;51107;47.652;19.016;2023-10-08T04:25:47;3.37;;;1.08;;
64682;SDS011;51107;47.652;19.016;2023-10-08T04:28:22;2.45;;;1.10;;
64682;SDS011;51107;47.652;19.016;2023-10-08T04:33:29;1.75;;;1.10;;
64682;SDS011;51107;47.652;19.016;2023-10-08T04:36:02;3.42;;;1.10;;
64682;SDS011;51107;47.652;19.016;2023-10-08T04:38:30;3.12;;;1.20;;
64682;SDS011;51107;47.652;19.016;2023-10-08T04:41:08;3.20;;;1.20;;
64682;SDS011;51107;47.652;19.016;2023-10-08T04:43:37;3.00;;;0.80;;
64682;SDS011;51107;47.652;19.016;2023-10-08T04:46:05;2.70;;;1.08;;
64682;SDS011;51107;47.652;19.016;2023-10-08T04:48:48;2.28;;;1.02;;
64682;SDS011;51107;47.652;19.016;2023-10-08T04:51:17;1.83;;;1.08;;
64682;SDS011;51107;47.652;19.016;2023-10-08T04:53:51;2.45;;;1.20;;
64682;SDS011;51107;47.652;19.016;2023-10-08T04:56:19;2.58;;;0.82;;
64682;SDS011;51107;47.652;19.016;2023-10-08T04:58:47;2.15;;;1.02;;
64682;SDS011;51107;47.652;19.016;2023-10-08T05:01:17;1.90;;;0.65;;
64682;SDS011;51107;47.652;19.016;2023-10-08T05:03:49;5.20;;;1.17;;
64682;SDS011;51107;47.652;19.016;2023-10-08T05:06:26;3.53;;;0.93;;
64682;SDS011;51107;47.652;19.016;2023-10-08T05:09:12;2.53;;;0.90;;
64682;SDS011;51107;47.652;19.016;2023-10-08T05:11:47;2.65;;;1.27;;
64682;SDS011;51107;47.652;19.016;2023-10-08T05:14:20;2.97;;;1.27;;
64682;SDS011;51107;47.652;19.016;2023-10-08T05:17:02;4.05;;;0.85;;
64682;SDS011;51107;47.652;19.016;2023-10-08T05:19:48;3.90;;;1.08;;
64682;SDS011;51107;47.652;19.016;2023-10-08T05:22:50;2.90;;;0.95;;
64682;SDS011;51107;47.652;19.016;2023-10-08T05:25:23;3.37;;;1.02;;
64682;SDS011;51107;47.652;19.016;2023-10-08T05:28:03;2.78;;;1.00;;
64682;SDS011;51107;47.652;19.016;2023-10-08T05:30:37;6.68;;;1.23;;
64682;SDS011;51107;47.652;19.016;2023-10-08T05:33:08;4.30;;;1.10;;
64682;SDS011;51107;47.652;19.016;2023-10-08T05:36:11;1.98;;;1.10;;
64682;SDS011;51107;47.652;19.016;2023-10-08T05:38:47;5.30;;;1.12;;
64682;SDS011;51107;47.652;19.016;2023-10-08T05:41:28;2.87;;;1.55;;
64682;SDS011;51107;47.652;19.016;2023-10-08T05:44:07;1.70;;;1.00;;
64682;SDS011;51107;47.652;19.016;2023-10-08T05:46:48;8.43;;;1.27;;
64682;SDS011;51107;47.652;19.016;2023-10-08T05:49:22;6.30;;;1.35;;
64682;SDS011;51107;47.652;19.016;2023-10-08T05:52:00;2.58;;;0.93;;
64682;SDS011;51107;47.652;19.016;2023-10-08T05:54:31;3.47;;;1.40;;
64682;SDS011;51107;47.652;19.016;2023-10-08T05:57:07;2.42;;;1.00;;
64682;SDS011;51107;47.652;19.016;2023-10-08T05:59:41;2.22;;;1.00;;
64682;SDS011;51107;47.652;19.016;2023-10-08T06:02:28;4.53;;;1.20;;
64682;SDS011;51107;47.652;19.016;2023-10-08T06:05:02;3.87;;;1.30;;
64682;SDS011;51107;47.652;19.016;2023-10-08T06:10:25;1.60;;;0.88;;
64682;SDS011;51107;47.652;19.016;2023-10-08T06:12:54;4.03;;;0.95;;
64682;SDS011;51107;47.652;19.016;2023-10-08T06:15:37;2.00;;;1.15;;
64682;SDS011;51107;47.652;19.016;2023-10-08T06:20:55;3.42;;;1.00;;
64682;SDS011;51107;47.652;19.016;2023-10-08T06:23:27;5.00;;;0.90;;
64682;SDS011;51107;47.652;19.016;2023-10-08T06:25:57;2.83;;;1.10;;
64682;SDS011;51107;47.652;19.016;2023-10-08T06:28:26;3.20;;;0.73;;
64682;SDS011;51107;47.652;19.016;2023-10-08T06:30:55;4.87;;;1.30;;
64682;SDS011;51107;47.652;19.016;2023-10-08T06:33:25;4.45;;;1.58;;
64682;SDS011;51107;47.652;19.016;2023-10-08T06:35:59;2.10;;;1.10;;
64682;SDS011;51107;47.652;19.016;2023-10-08T06:41:02;4.53;;;1.42;;
64682;SDS011;51107;47.652;19.016;2023-10-08T06:43:41;1.98;;;0.82;;
64682;SDS011;51107;47.652;19.016;2023-10-08T06:46:17;3.58;;;1.25;;
64682;SDS011;51107;47.652;19.016;2023-10-08T06:48:50;2.30;;;1.25;;
64682;SDS011;51107;47.652;19.016;2023-10-08T06:51:21;2.72;;;1.30;;
64682;SDS011;51107;47.652;19.016;2023-10-08T06:53:49;2.87;;;1.52;;
64682;SDS011;51107;47.652;19.016;2023-10-08T06:56:18;1.73;;;1.10;;
64682;SDS011;51107;47.652;19.016;2023-10-08T06:58:47;4.15;;;1.10;;
64682;SDS011;51107;47.652;19.016;2023-10-08T07:01:16;2.15;;;1.10;;
64682;SDS011;51107;47.652;19.016;2023-10-08T07:03:56;7.30;;;1.10;;
64682;SDS011;51107;47.652;19.016;2023-10-08T07:06:34;1.50;;;0.88;;
64682;SDS011;51107;47.652;19.016;2023-10-08T07:09:06;2.00;;;1.08;;
64682;SDS011;51107;47.652;19.016;2023-10-08T07:11:56;2.03;;;1.15;;
64682;SDS011;51107;47.652;19.016;2023-10-08T07:14:26;2.80;;;1.08;;
64682;SDS011;51107;47.652;19.016;2023-10-08T07:16:57;3.12;;;1.08;;
64682;SDS011;51107;47.652;19.016;2023-10-08T07:19:29;2.20;;;1.05;;
64682;SDS011;51107;47.652;19.016;2023-10-08T07:22:07;3.92;;;1.33;;
64682;SDS011;51107;47.652;19.016;2023-10-08T07:24:51;1.08;;;0.98;;
64682;SDS011;51107;47.652;19.016;2023-10-08T07:27:20;5.80;;;1.73;;
64682;SDS011;51107;47.652;19.016;2023-10-08T07:29:58;2.95;;;1.10;;
64682;SDS011;51107;47.652;19.016;2023-10-08T07:32:30;2.83;;;1.10;;
64682;SDS011;51107;47.652;19.016;2023-10-08T07:34:59;6.62;;;1.58;;
64682;SDS011;51107;47.652;19.016;2023-10-08T07:37:46;7.22;;;1.42;;
64682;SDS011;51107;47.652;19.016;2023-10-08T07:40:18;4.15;;;1.23;;
64682;SDS011;51107;47.652;19.016;2023-10-08T07:42:48;2.35;;;1.25;;
64682;SDS011;51107;47.652;19.016;2023-10-08T07:45:20;5.18;;;1.48;;
64682;SDS011;51107;47.652;19.016;2023-10-08T07:47:49;2.85;;;1.50;;
64682;SDS011;51107;47.652;19.016;2023-10-08T07:50:18;1.95;;;1.20;;
64682;SDS011;51107;47.652;19.016;2023-10-08T07:52:47;4.85;;;1.40;;
64682;SDS011;51107;47.652;19.016;2023-10-08T07:55:15;2.12;;;1.10;;
64682;SDS011;51107;47.652;19.016;2023-10-08T07:57:46;2.95;;;0.90;;
64682;SDS011;51107;47.652;19.016;2023-10-08T08:00:15;3.00;;;1.20;;
64682;SDS011;51107;47.652;19.016;2023-10-08T08:02:50;3.20;;;1.10;;
64682;SDS011;51107;47.652;19.016;2023-10-08T08:05:20;4.30;;;1.30;;
64682;SDS011;51107;47.652;19.016;2023-10-08T08:07:49;7.53;;;1.10;;
64682;SDS011;51107;47.652;19.016;2023-10-08T08:10:18;3.60;;;1.50;;
64682;SDS011;51107;47.652;19.016;2023-10-08T08:12:46;3.42;;;1.60;;
64682;SDS011;51107;47.652;19.016;2023-10-08T08:15:19;2.65;;;1.17;;
64682;SDS011;51107;47.652;19.016;2023-10-08T08:17:48;1.77;;;1.20;;
64682;SDS011;51107;47.652;19.016;2023-10-08T08:20:16;8.68;;;1.65;;
64682;SDS011;51107;47.652;19.016;2023-10-08T08:22:50;2.60;;;0.90;;
64682;SDS011;51107;47.652;19.016;2023-10-08T08:25:22;2.25;;;1.12;;
64682;SDS011;51107;47.652;19.016;2023-10-08T08:28:11;3.50;;;1.90;;
64682;SDS011;51107;47.652;19.016;2023-10-08T08:30:45;3.83;;;1.08;;
64682;SDS011;51107;47.652;19.016;2023-10-08T08:33:17;1.98;;;1.00;;
64682;SDS011;51107;47.652;19.016;2023-10-08T08:35:59;2.85;;;1.10;;
64682;SDS011;51107;47.652;19.016;2023-10-08T08:38:29;4.80;;;1.27;;
64682;SDS011;51107;47.652;19.016;2023-10-08T08:41:04;2.12;;;1.17;;
64682;SDS011;51107;47.652;19.016;2023-10-08T08:43:35;7.53;;;1.35;;
64682;SDS011;51107;47.652;19.016;2023-10-08T08:46:04;4.87;;;1.25;;
64682;SDS011;51107;47.652;19.016;2023-10-08T08:48:42;1.60;;;0.90;;
64682;SDS011;51107;47.652;19.016;2023-10-08T08:51:16;1.80;;;1.27;;
64682;SDS011;51107;47.652;19.016;2023-10-08T08:53:45;1.55;;;1.00;;
64682;SDS011;51107;47.652;19.016;2023-10-08T08:56:14;1.62;;;1.05;;
64682;SDS011;51107;47.652;19.016;2023-10-08T08:58:43;4.18;;;1.35;;
64682;SDS011;51107;47.652;19.016;2023-10-08T09:01:12;2.17;;;1.05;;
64682;SDS011;51107;47.652;19.016;2023-10-08T09:03:43;3.97;;;1.30;;
64682;SDS011;51107;47.652;19.016;2023-10-08T09:06:14;4.12;;;1.12;;
64682;SDS011;51107;47.652;19.016;2023-10-08T09:08:42;1.62;;;1.05;;
64682;SDS011;51107;47.652;19.016;2023-10-08T09:11:15;2.95;;;0.93;;
64682;SDS011;51107;47.652;19.016;2023-10-08T09:13:44;3.28;;;1.17;;
64682;SDS011;51107;47.652;19.016;2023-10-08T09:18:43;9.00;;;1.17;;
64682;SDS011;51107;47.652;19.016;2023-10-08T09:21:14;3.37;;;1.05;;
64682;SDS011;51107;47.652;19.016;2023-10-08T09:23:51;3.22;;;1.00;;
64682;SDS011;51107;47.652;19.016;2023-10-08T09:26:23;6.25;;;1.27;;
64682;SDS011;51107;47.652;19.016;2023-10-08T09:28:55;4.75;;;1.10;;
64682;SDS011;51107;47.652;19.016;2023-10-08T09:31:25;3.40;;;1.00;;
64682;SDS011;51107;47.652;19.016;2023-10-08T09:33:54;2.00;;;1.25;;
64682;SDS011;51107;47.652;19.016;2023-10-08T09:36:23;5.68;;;1.42;;
64682;SDS011;51107;47.652;19.016;2023-10-08T09:39:03;2.92;;;1.23;;
64682;SDS011;51107;47.652;19.016;2023-10-08T09:41:34;4.97;;;1.30;;
64682;SDS011;51107;47.652;19.016;2023-10-08T09:44:06;4.32;;;1.08;;
64682;SDS011;51107;47.652;19.016;2023-10-08T09:46:40;4.10;;;1.40;;
64682;SDS011;51107;47.652;19.016;2023-10-08T09:49:10;4.45;;;1.40;;
64682;SDS011;51107;47.652;19.016;2023-10-08T09:51:40;6.85;;;1.37;;
64682;SDS011;51107;47.652;19.016;2023-10-08T09:54:11;3.47;;;1.20;;
64682;SDS011;51107;47.652;19.016;2023-10-08T09:56:46;2.10;;;1.10;;
64682;SDS011;51107;47.652;19.016;2023-10-08T09:59:15;1.92;;;0.90;;
64682;SDS011;51107;47.652;19.016;2023-10-08T10:01:44;2.25;;;0.90;;
64682;SDS011;51107;47.652;19.016;2023-10-08T10:04:22;2.25;;;0.80;;
64682;SDS011;51107;47.652;19.016;2023-10-08T10:06:52;1.70;;;1.00;;
64682;SDS011;51107;47.652;19.016;2023-10-08T10:09:21;2.50;;;1.10;;
64682;SDS011;51107;47.652;19.016;2023-10-08T10:11:53;2.20;;;1.10;;
64682;SDS011;51107;47.652;19.016;2023-10-08T10:14:23;1.83;;;0.90;;
64682;SDS011;51107;47.652;19.016;2023-10-08T10:17:09;1.40;;;0.70;;
64682;SDS011;51107;47.652;19.016;2023-10-08T10:20:01;3.20;;;0.60;;
64682;SDS011;51107;47.652;19.016;2023-10-08T10:22:32;0.57;;;0.40;;
64682;SDS011;51107;47.652;19.016;2023-10-08T10:25:02;4.30;;;0.43;;
64682;SDS011;51107;47.652;19.016;2023-10-08T10:30:26;0.35;;;0.35;;
64682;SDS011;51107;47.652;19.016;2023-10-08T10:32:59;0.25;;;0.20;;
64682;SDS011;51107;47.652;19.016;2023-10-08T10:35:29;0.52;;;0.20;;
64682;SDS011;51107;47.652;19.016;2023-10-08T10:37:58;0.75;;;0.30;;
64682;SDS011;51107;47.652;19.016;2023-10-08T10:40:32;0.35;;;0.10;;
64682;SDS011;51107;47.652;19.016;2023-10-08T10:43:09;0.22;;;0.20;;
64682;SDS011;51107;47.652;19.016;2023-10-08T10:45:38;0.10;;;0.10;;
64682;SDS011;51107;47.652;19.016;2023-10-08T10:48:12;2.42;;;0.40;;
64682;SDS011;51107;47.652;19.016;2023-10-08T10:50:50;0.20;;;0.13;;
64682;SDS011;51107;47.652;19.016;2023-10-08T10:53:35;0.22;;;0.10;;
64682;SDS011;51107;47.652;19.016;2023-10-08T10:56:14;0.05;;;0.05;;
64682;SDS011;51107;47.652;19.016;2023-10-08T10:59:00;1.25;;;0.20;;
64682;SDS011;51107;47.652;19.016;2023-10-08T11:01:34;0.10;;;0.10;;
64682;SDS011;51107;47.652;19.016;2023-10-08T11:04:14;0.20;;;0.10;;
64682;SDS011;51107;47.652;19.016;2023-10-08T11:06:47;0.32;;;0.20;;
64682;SDS011;51107;47.652;19.016;2023-10-08T11:09:24;0.10;;;0.10;;
64682;SDS011;51107;47.652;19.016;2023-10-08T11:12:07;0.00;;;0.00;;
64682;SDS011;51107;47.652;19.016;2023-10-08T11:14:51;0.20;;;0.20;;
64682;SDS011;51107;47.652;19.016;2023-10-08T11:17:23;0.20;;;0.20;;
64682;SDS011;51107;47.652;19.016;2023-10-08T11:19:53;1.00;;;0.30;;
64682;SDS011;51107;47.652;19.016;2023-10-08T11:22:22;0.00;;;0.00;;
64682;SDS011;51107;47.652;19.016;2023-10-08T11:24:51;0.10;;;0.10;;
64682;SDS011;51107;47.652;19.016;2023-10-08T11:27:22;0.10;;;0.10;;
64682;SDS011;51107;47.652;19.016;2023-10-08T11:29:57;0.00;;;0.00;;
64682;SDS011;51107;47.652;19.016;2023-10-08T11:32:28;0.10;;;0.10;;
64682;SDS011;51107;47.652;19.016;2023-10-08T11:35:01;0.45;;;0.30;;
64682;SDS011;51107;47.652;19.016;2023-10-08T11:37:46;0.00;;;0.00;;
64682;SDS011;51107;47.652;19.016;2023-10-08T11:40:25;0.00;;;0.00;;
64682;SDS011;51107;47.652;19.016;2023-10-08T11:42:58;3.40;;;0.10;;
64682;SDS011;51107;47.652;19.016;2023-10-08T11:45:27;1.75;;;0.20;;
64682;SDS011;51107;47.652;19.016;2023-10-08T11:48:05;0.10;;;0.10;;
64682;SDS011;51107;47.652;19.016;2023-10-08T11:50:40;0.10;;;0.10;;
64682;SDS011;51107;47.652;19.016;2023-10-08T11:53:09;0.10;;;0.10;;
64682;SDS011;51107;47.652;19.016;2023-10-08T11:55:39;0.00;;;0.00;;
64682;SDS011;51107;47.652;19.016;2023-10-08T11:58:10;0.32;;;0.10;;
64682;SDS011;51107;47.652;19.016;2023-10-08T12:00:39;0.17;;;0.17;;
64682;SDS011;51107;47.652;19.016;2023-10-08T12:03:20;0.28;;;0.10;;
64682;SDS011;51107;47.652;19.016;2023-10-08T12:05:53;0.10;;;0.10;;
64682;SDS011;51107;47.652;19.016;2023-10-08T12:10:56;0.20;;;0.20;;
64682;SDS011;51107;47.652;19.016;2023-10-08T12:13:28;0.62;;;0.17;;
64682;SDS011;51107;47.652;19.016;2023-10-08T12:15:56;0.20;;;0.10;;
64682;SDS011;51107;47.652;19.016;2023-10-08T12:18:34;0.10;;;0.10;;
64682;SDS011;51107;47.652;19.016;2023-10-08T12:21:15;0.55;;;0.20;;
64682;SDS011;51107;47.652;19.016;2023-10-08T12:23:44;0.00;;;0.00;;
64682;SDS011;51107;47.652;19.016;2023-10-08T12:26:17;0.10;;;0.10;;
64682;SDS011;51107;47.652;19.016;2023-10-08T12:28:49;0.10;;;0.10;;
64682;SDS011;51107;47.652;19.016;2023-10-08T12:31:18;0.20;;;0.15;;
64682;SDS011;51107;47.652;19.016;2023-10-08T12:33:51;2.83;;;0.22;;
64682;SDS011;51107;47.652;19.016;2023-10-08T12:36:24;0.25;;;0.20;;
64682;SDS011;51107;47.652;19.016;2023-10-08T12:38:54;0.10;;;0.10;;
64682;SDS011;51107;47.652;19.016;2023-10-08T12:41:26;0.85;;;0.10;;
64682;SDS011;51107;47.652;19.016;2023-10-08T12:43:55;0.10;;;0.10;;
64682;SDS011;51107;47.652;19.016;2023-10-08T12:46:25;0.50;;;0.20;;
64682;SDS011;51107;47.652;19.016;2023-10-08T12:48:54;0.20;;;0.20;;
64682;SDS011;51107;47.652;19.016;2023-10-08T12:51:24;0.10;;;0.10;;
64682;SDS011;51107;47.652;19.016;2023-10-08T12:53:53;0.40;;;0.30;;
64682;SDS011;51107;47.652;19.016;2023-10-08T12:56:35;0.30;;;0.28;;
64682;SDS011;51107;47.652;19.016;2023-10-08T12:59:04;1.35;;;0.20;;
64682;SDS011;51107;47.652;19.016;2023-10-08T13:01:35;0.45;;;0.20;;
64682;SDS011;51107;47.652;19.016;2023-10-08T13:04:04;0.10;;;0.10;;
64682;SDS011;51107;47.652;19.016;2023-10-08T13:06:41;0.10;;;0.10;;
64682;SDS011;51107;47.652;19.016;2023-10-08T13:09:13;0.32;;;0.20;;
64682;SDS011;51107;47.652;19.016;2023-10-08T13:11:42;2.78;;;0.40;;
64682;SDS011;51107;47.652;19.016;2023-10-08T13:14:11;0.17;;;0.17;;
64682;SDS011;51107;47.652;19.016;2023-10-08T13:16:40;2.28;;;0.40;;
64682;SDS011;51107;47.652;19.016;2023-10-08T13:19:08;0.35;;;0.30;;
64682;SDS011;51107;47.652;19.016;2023-10-08T13:21:37;0.50;;;0.20;;
64682;SDS011;51107;47.652;19.016;2023-10-08T13:24:08;0.10;;;0.10;;
64682;SDS011;51107;47.652;19.016;2023-10-08T13:26:37;0.32;;;0.28;;
64682;SDS011;51107;47.652;19.016;2023-10-08T13:29:07;0.20;;;0.20;;
64682;SDS011;51107;47.652;19.016;2023-10-08T13:31:38;0.85;;;0.40;;
64682;SDS011;51107;47.652;19.016;2023-10-08T13:34:06;0.80;;;0.30;;
64682;SDS011;51107;47.652;19.016;2023-10-08T13:36:40;0.30;;;0.30;;
64682;SDS011;51107;47.652;19.016;2023-10-08T13:39:10;0.52;;;0.30;;
64682;SDS011;51107;47.652;19.016;2023-10-08T13:41:47;0.65;;;0.30;;
64682;SDS011;51107;47.652;19.016;2023-10-08T13:44:20;0.32;;;0.32;;
64682;SDS011;51107;47.652;19.016;2023-10-08T13:46:58;0.30;;;0.30;;
64682;SDS011;51107;47.652;19.016;2023-10-08T13:49:28;1.95;;;0.75;;
64682;SDS011;51107;47.652;19.016;2023-10-08T13:52:00;0.28;;;0.25;;
64682;SDS011;51107;47.652;19.016;2023-10-08T13:54:28;0.52;;;0.40;;
64682;SDS011;51107;47.652;19.016;2023-10-08T13:56:58;0.30;;;0.30;;
64682;SDS011;51107;47.652;19.016;2023-10-08T13:59:30;0.40;;;0.30;;
64682;SDS011;51107;47.652;19.016;2023-10-08T14:02:01;0.30;;;0.30;;
64682;SDS011;51107;47.652;19.016;2023-10-08T14:04:42;0.90;;;0.40;;
64682;SDS011;51107;47.652;19.016;2023-10-08T14:07:13;1.40;;;0.73;;
64682;SDS011;51107;47.652;19.016;2023-10-08T14:09:49;0.60;;;0.37;;
64682;SDS011;51107;47.652;19.016;2023-10-08T14:12:18;0.40;;;0.40;;
64682;SDS011;51107;47.652;19.016;2023-10-08T14:14:46;0.68;;;0.50;;
64682;SDS011;51107;47.652;19.016;2023-10-08T14:17:17;1.45;;;0.68;;
64682;SDS011;51107;47.652;19.016;2023-10-08T14:20:05;0.62;;;0.32;;
64682;SDS011;51107;47.652;19.016;2023-10-08T14:22:41;1.17;;;0.47;;
64682;SDS011;51107;47.652;19.016;2023-10-08T14:25:11;0.68;;;0.50;;
64682;SDS011;51107;47.652;19.016;2023-10-08T14:27:39;0.55;;;0.37;;
64682;SDS011;51107;47.652;19.016;2023-10-08T14:30:08;3.70;;;0.50;;
64682;SDS011;51107;47.652;19.016;2023-10-08T14:35:14;0.62;;;0.50;;
64682;SDS011;51107;47.652;19.016;2023-10-08T14:38:01;0.70;;;0.40;;
64682;SDS011;51107;47.652;19.016;2023-10-08T14:40:49;0.55;;;0.35;;
64682;SDS011;51107;47.652;19.016;2023-10-08T14:43:36;1.20;;;0.60;;
64682;SDS011;51107;47.652;19.016;2023-10-08T14:46:06;0.57;;;0.47;;
64682;SDS011;51107;47.652;19.016;2023-10-08T14:48:37;0.50;;;0.40;;
64682;SDS011;51107;47.652;19.016;2023-10-08T14:51:09;1.37;;;0.55;;
64682;SDS011;51107;47.652;19.016;2023-10-08T14:53:47;0.20;;;0.20;;
64682;SDS011;51107;47.652;19.016;2023-10-08T14:56:17;0.77;;;0.50;;
64682;SDS011;51107;47.652;19.016;2023-10-08T14:58:48;1.10;;;0.50;;
64682;SDS011;51107;47.652;19.016;2023-10-08T15:01:17;0.98;;;0.60;;
64682;SDS011;51107;47.652;19.016;2023-10-08T15:03:45;3.62;;;0.52;;
64682;SDS011;51107;47.652;19.016;2023-10-08T15:06:14;0.95;;;0.57;;
64682;SDS011;51107;47.652;19.016;2023-10-08T15:08:43;0.70;;;0.35;;
64682;SDS011;51107;47.652;19.016;2023-10-08T15:11:11;2.05;;;0.60;;
64682;SDS011;51107;47.652;19.016;2023-10-08T15:13:40;1.12;;;0.47;;
64682;SDS011;51107;47.652;19.016;2023-10-08T15:16:08;4.57;;;0.65;;
64682;SDS011;51107;47.652;19.016;2023-10-08T15:18:37;1.10;;;0.60;;
64682;SDS011;51107;47.652;19.016;2023-10-08T15:21:11;5.90;;;0.60;;
64682;SDS011;51107;47.652;19.016;2023-10-08T15:23:39;2.92;;;0.80;;
64682;SDS011;51107;47.652;19.016;2023-10-08T15:26:07;1.67;;;0.40;;
64682;SDS011;51107;47.652;19.016;2023-10-08T15:28:36;1.35;;;0.62;;
64682;SDS011;51107;47.652;19.016;2023-10-08T15:31:05;1.00;;;0.40;;